Time;durP1;ratioP1;P1;durP2;ratioP2;P2;SDS_P1;SDS_P2;PMS_P1;PMS_P2;Temp;Humidity;BMP_temperature;BMP_pressure;BME280_temperature;BME280_humidity;BME280_pressure;Samples;Min_cycle;Max_cycle;Signal;HPM_P1;HPM_P2
2022/09/20 00:00:43;;;;;;;;;;;14.50;99.90;;;;;;5074652;28;19908;-75
2022/09/20 00:03:09;;;;;;;;;;;14.50;99.90;;;;;;5074264;28;19966;-75
2022/09/20 00:05:36;;;;;;;;;;;14.50;99.90;;;;;;5074597;28;19991;-75
2022/09/20 00:08:02;;;;;;;;;;;14.40;99.90;;;;;;5074553;28;19951;-74
2022/09/20 00:10:29;;;;;;;;;;;14.20;99.90;;;;;;5074580;28;19966;-76
2022/09/20 00:12:55;;;;;;;;;;;14.20;99.90;;;;;;5074373;28;19909;-75
2022/09/20 00:15:21;;;;;;;;;;;14.20;99.90;;;;;;5074185;28;19915;-74
2022/09/20 00:17:46;;;;;;;;;;;14.00;99.90;;;;;;5074148;28;19908;-74
2022/09/20 00:20:12;;;;;;;;;;;13.90;99.90;;;;;;5074162;28;20284;-75
2022/09/20 00:22:38;;;;;;;;;;;14.00;99.90;;;;;;5074038;28;20007;-74
2022/09/20 00:25:04;;;;;;;;;;;14.20;99.90;;;;;;5074077;28;20392;-74
2022/09/20 00:27:30;;;;;;;;;;;14.20;99.90;;;;;;5074426;28;19909;-75
2022/09/20 00:29:57;;;;;;;;;;;14.20;99.90;;;;;;5074166;28;19923;-73
2022/09/20 00:32:23;;;;;;;;;;;14.10;99.90;;;;;;5073988;28;20424;-74
2022/09/20 00:35:06;;;;;;;;;;;14.10;99.90;;;;;;5073907;28;19909;-76
2022/09/20 00:37:39;;;;;;;;;;;13.90;99.90;;;;;;5074298;28;19999;-74
2022/09/20 00:40:07;;;;;;;;;;;13.70;99.90;;;;;;5073985;28;19908;-75
2022/09/20 00:42:33;;;;;;;;;;;13.70;99.90;;;;;;5073712;28;19942;-76
2022/09/20 00:45:00;;;;;;;;;;;13.80;99.90;;;;;;5073737;28;20284;-75
2022/09/20 00:47:25;;;;;;;;;;;13.60;99.90;;;;;;5073153;28;21323;-75
2022/09/20 00:49:53;;;;;;;;;;;13.50;99.90;;;;;;5073966;28;19935;-76
2022/09/20 00:52:19;;;;;;;;;;;13.40;99.90;;;;;;5073712;28;20369;-75
2022/09/20 00:54:45;;;;;;;;;;;13.40;99.90;;;;;;5073652;28;19913;-76
2022/09/20 00:57:11;;;;;;;;;;;13.40;99.90;;;;;;5074493;28;19915;-75
2022/09/20 00:59:39;;;;;;;;;;;13.50;99.90;;;;;;5073608;28;20391;-76
2022/09/20 01:02:33;;;;;;;;;;;13.40;99.90;;;;;;5073010;28;20466;-74
2022/09/20 01:04:59;;;;;;;;;;;13.30;99.90;;;;;;5064311;28;19908;-75
2022/09/20 01:07:25;;;;;;;;;;;13.20;99.90;;;;;;5073583;28;19915;-74
2022/09/20 01:09:51;;;;;;;;;;;13.30;99.90;;;;;;5073982;28;20369;-76
2022/09/20 01:12:18;;;;;;;;;;;13.40;99.90;;;;;;5073734;28;19916;-75
2022/09/20 01:14:45;;;;;;;;;;;13.40;99.90;;;;;;5073647;28;19915;-75
2022/09/20 01:17:11;;;;;;;;;;;13.30;99.90;;;;;;5073557;28;19909;-75
2022/09/20 01:19:58;;;;;;;;;;;13.40;99.90;;;;;;5073460;28;19958;-75
2022/09/20 01:22:27;;;;;;;;;;;13.50;99.90;;;;;;5073595;28;19916;-74
2022/09/20 01:24:56;;;;;;;;;;;13.40;99.90;;;;;;5072078;28;19908;-74
2022/09/20 01:27:25;;;;;;;;;;;13.30;99.90;;;;;;5073466;28;20344;-76
2022/09/20 01:30:27;;;;;;;;;;;13.30;99.90;;;;;;5073280;28;20288;-75
2022/09/20 01:33:08;;;;;;;;;;;13.30;99.90;;;;;;5031275;28;20401;-76
2022/09/20 01:35:34;;;;;;;;;;;13.10;99.90;;;;;;5068851;28;19912;-76
2022/09/20 01:38:20;;;;;;;;;;;13.00;99.90;;;;;;5073231;28;19915;-76
2022/09/20 01:40:48;;;;;;;;;;;12.90;99.90;;;;;;5052085;28;20286;-74
2022/09/20 01:43:25;;;;;;;;;;;12.80;99.90;;;;;;5071892;28;19962;-75
2022/09/20 01:45:51;;;;;;;;;;;12.70;99.90;;;;;;5073227;28;20377;-75
2022/09/20 01:48:32;;;;;;;;;;;12.90;99.90;;;;;;5072961;28;20304;-76
2022/09/20 01:51:15;;;;;;;;;;;13.00;99.90;;;;;;5073260;28;20365;-74
2022/09/20 01:54:16;;;;;;;;;;;12.90;99.90;;;;;;5073079;28;19908;-74
2022/09/20 01:56:57;;;;;;;;;;;12.90;99.90;;;;;;5031817;28;19909;-75
2022/09/20 01:59:41;;;;;;;;;;;13.00;99.90;;;;;;5069311;28;19909;-75
2022/09/20 02:02:07;;;;;;;;;;;13.00;99.90;;;;;;5076591;28;19912;-74
2022/09/20 02:04:33;;;;;;;;;;;12.90;99.90;;;;;;5076684;28;19916;-74
2022/09/20 02:07:11;;;;;;;;;;;12.90;99.90;;;;;;5076665;28;19908;-75
2022/09/20 02:09:36;;;;;;;;;;;12.70;99.90;;;;;;5076584;28;19997;-76
2022/09/20 02:12:21;;;;;;;;;;;12.80;99.90;;;;;;5076543;28;20385;-75
2022/09/20 02:14:59;;;;;;;;;;;12.60;99.90;;;;;;5076654;28;20288;-75
2022/09/20 02:17:30;;;;;;;;;;;12.60;99.90;;;;;;5076662;28;20399;-75
2022/09/20 02:19:59;;;;;;;;;;;12.60;99.90;;;;;;5076610;28;20273;-75
2022/09/20 02:22:39;;;;;;;;;;;12.50;99.90;;;;;;5076294;28;19966;-75
2022/09/20 02:25:23;;;;;;;;;;;12.50;99.90;;;;;;5076469;28;19913;-76
2022/09/20 02:28:04;;;;;;;;;;;12.50;99.90;;;;;;5076527;28;19973;-75
2022/09/20 02:30:37;;;;;;;;;;;12.40;99.90;;;;;;5076365;28;19958;-75
2022/09/20 02:33:12;;;;;;;;;;;12.40;99.90;;;;;;5076337;28;20365;-76
2022/09/20 02:35:49;;;;;;;;;;;12.40;99.90;;;;;;5076161;28;19923;-75
2022/09/20 02:38:25;;;;;;;;;;;12.30;99.90;;;;;;5076482;28;19999;-75
2022/09/20 02:41:08;;;;;;;;;;;12.30;99.90;;;;;;5076076;28;20437;-75
2022/09/20 02:43:51;;;;;;;;;;;12.30;99.90;;;;;;5076047;28;19912;-76
2022/09/20 02:46:28;;;;;;;;;;;12.30;99.90;;;;;;5076371;28;20396;-74
2022/09/20 02:49:03;;;;;;;;;;;12.30;99.90;;;;;;5075807;28;20015;-74
2022/09/20 02:51:34;;;;;;;;;;;12.20;99.90;;;;;;5075862;28;20392;-74
2022/09/20 02:53:59;;;;;;;;;;;12.20;99.90;;;;;;5075837;28;19908;-74
2022/09/20 02:56:31;;;;;;;;;;;12.20;99.90;;;;;;5076447;28;19892;-75
2022/09/20 02:59:04;;;;;;;;;;;12.10;99.90;;;;;;5075658;28;19995;-75
2022/09/20 03:01:33;;;;;;;;;;;12.00;99.90;;;;;;5075713;28;19915;-77
2022/09/20 03:03:59;;;;;;;;;;;11.90;99.90;;;;;;5075836;28;20053;-76
2022/09/20 03:06:25;;;;;;;;;;;11.90;99.90;;;;;;5075534;28;19947;-75
2022/09/20 03:09:00;;;;;;;;;;;11.90;99.90;;;;;;5075620;28;19909;-75
2022/09/20 03:11:52;;;;;;;;;;;12.10;99.90;;;;;;5075014;28;19995;-76
2022/09/20 03:14:27;;;;;;;;;;;12.10;99.90;;;;;;5073287;28;19909;-75
2022/09/20 03:17:11;;;;;;;;;;;12.20;99.90;;;;;;5075294;28;19909;-75
2022/09/20 03:19:39;;;;;;;;;;;12.20;99.90;;;;;;5075288;28;19999;-74
2022/09/20 03:22:25;;;;;;;;;;;12.10;99.90;;;;;;5075751;28;19918;-75
2022/09/20 03:25:03;;;;;;;;;;;12.10;99.90;;;;;;5073675;28;19908;-75
2022/09/20 03:27:47;;;;;;;;;;;12.10;99.90;;;;;;5075207;28;19916;-76
2022/09/20 03:30:40;;;;;;;;;;;12.10;99.90;;;;;;5075244;28;19908;-74
2022/09/20 03:33:05;;;;;;;;;;;12.10;99.90;;;;;;5050979;28;19912;-75
2022/09/20 03:35:50;;;;;;;;;;;11.90;99.90;;;;;;5074972;28;19909;-75
2022/09/20 03:38:34;;;;;;;;;;;11.90;99.90;;;;;;5073610;28;20388;-75
2022/09/20 03:41:14;;;;;;;;;;;11.70;99.90;;;;;;5074798;28;19908;-76
2022/09/20 03:43:43;;;;;;;;;;;11.70;99.90;;;;;;5074867;28;19958;-74
2022/09/20 03:46:12;;;;;;;;;;;11.70;99.90;;;;;;5074696;28;19908;-75
2022/09/20 03:48:48;;;;;;;;;;;11.80;99.90;;;;;;5073216;28;19920;-75
2022/09/20 03:51:21;;;;;;;;;;;11.80;99.90;;;;;;5074828;28;20418;-77
2022/09/20 03:53:55;;;;;;;;;;;11.80;99.90;;;;;;5074612;28;20399;-76
2022/09/20 03:56:20;;;;;;;;;;;11.80;99.90;;;;;;5075545;28;19908;-76
2022/09/20 03:58:56;;;;;;;;;;;11.80;99.90;;;;;;5074588;28;19991;-76
2022/09/20 04:01:22;;;;;;;;;;;11.60;99.90;;;;;;5074576;28;19954;-75
2022/09/20 04:03:57;;;;;;;;;;;11.40;99.90;;;;;;5074395;28;19908;-76
2022/09/20 04:06:39;;;;;;;;;;;11.50;99.90;;;;;;5074333;28;19909;-76
2022/09/20 04:09:23;;;;;;;;;;;11.60;99.90;;;;;;5074503;28;19913;-74
2022/09/20 04:12:06;;;;;;;;;;;11.70;99.90;;;;;;5074550;28;19912;-75
2022/09/20 04:14:36;;;;;;;;;;;11.70;99.90;;;;;;5074357;28;19958;-76
2022/09/20 04:17:17;;;;;;;;;;;11.70;99.90;;;;;;5072596;28;20326;-75
2022/09/20 04:19:46;;;;;;;;;;;11.70;99.90;;;;;;5074085;28;19909;-74
2022/09/20 04:22:12;;;;;;;;;;;11.60;99.90;;;;;;5073422;28;19909;-76
2022/09/20 04:24:41;;;;;;;;;;;11.50;99.90;;;;;;5074347;28;19955;-75
2022/09/20 04:27:22;;;;;;;;;;;11.50;99.90;;;;;;5073969;28;19912;-74
2022/09/20 04:30:00;;;;;;;;;;;11.60;99.90;;;;;;5074317;28;19999;-74
2022/09/20 04:32:41;;;;;;;;;;;11.50;99.90;;;;;;5073950;28;20284;-76
2022/09/20 04:37:58;;;;;;;;;;;11.60;99.90;;;;;;5073762;28;19931;-75
2022/09/20 04:40:33;;;;;;;;;;;11.50;99.90;;;;;;5073815;28;20288;-74
2022/09/20 04:43:07;;;;;;;;;;;11.50;99.90;;;;;;5074051;28;19958;-76
2022/09/20 04:45:50;;;;;;;;;;;11.40;99.90;;;;;;5073925;28;19916;-76
2022/09/20 04:48:31;;;;;;;;;;;11.30;99.90;;;;;;5072139;28;19920;-75
2022/09/20 04:50:57;;;;;;;;;;;11.30;99.90;;;;;;5073727;28;19911;-76
2022/09/20 04:53:25;;;;;;;;;;;11.10;99.90;;;;;;5073804;28;19920;-76
2022/09/20 04:55:56;;;;;;;;;;;11.10;99.90;;;;;;5073801;28;20376;-75
2022/09/20 04:58:31;;;;;;;;;;;11.20;99.90;;;;;;5070472;28;19951;-75
2022/09/20 05:01:15;;;;;;;;;;;11.20;99.90;;;;;;5073581;28;20384;-75
2022/09/20 05:03:41;;;;;;;;;;;11.20;99.90;;;;;;5073618;28;19908;-75
2022/09/20 05:06:16;;;;;;;;;;;11.30;99.90;;;;;;5072310;28;19915;-75
2022/09/20 05:08:53;;;;;;;;;;;11.30;99.90;;;;;;5073547;28;19932;-76
2022/09/20 05:11:37;;;;;;;;;;;11.20;99.90;;;;;;5073395;28;19909;-74
2022/09/20 05:14:05;;;;;;;;;;;11.20;99.90;;;;;;5073594;28;20293;-74
2022/09/20 05:16:43;;;;;;;;;;;11.10;99.90;;;;;;5073477;28;19915;-76
2022/09/20 05:19:27;;;;;;;;;;;11.10;99.90;;;;;;5073434;28;19908;-73
2022/09/20 05:21:56;;;;;;;;;;;11.00;99.90;;;;;;5073544;28;20323;-74
2022/09/20 05:24:42;;;;;;;;;;;11.00;99.90;;;;;;5073446;28;20002;-76
2022/09/20 05:27:21;;;;;;;;;;;10.90;99.90;;;;;;5065881;28;19916;-73
2022/09/20 05:29:52;;;;;;;;;;;10.80;99.90;;;;;;5073489;28;19909;-75
2022/09/20 05:32:36;;;;;;;;;;;10.90;99.90;;;;;;5073356;28;19912;-75
2022/09/20 05:35:02;;;;;;;;;;;10.90;99.90;;;;;;5077133;28;19909;-74
2022/09/20 05:37:28;;;;;;;;;;;10.80;99.90;;;;;;5077395;28;19908;-75
2022/09/20 05:40:02;;;;;;;;;;;10.70;99.90;;;;;;5077225;28;19938;-76
2022/09/20 05:42:41;;;;;;;;;;;10.70;99.90;;;;;;5077229;28;20386;-75
2022/09/20 05:45:16;;;;;;;;;;;10.60;99.90;;;;;;5077813;28;19975;-77
2022/09/20 05:47:52;;;;;;;;;;;10.60;99.90;;;;;;5076791;28;19938;-76
2022/09/20 05:50:36;;;;;;;;;;;10.60;99.90;;;;;;5076950;28;19915;-76
2022/09/20 05:53:20;;;;;;;;;;;10.60;99.90;;;;;;5077221;28;20288;-74
2022/09/20 05:55:49;;;;;;;;;;;10.70;99.90;;;;;;5076814;28;19909;-75
2022/09/20 05:58:23;;;;;;;;;;;10.70;99.90;;;;;;5077374;28;20386;-75
2022/09/20 06:00:57;;;;;;;;;;;10.80;99.90;;;;;;5076611;28;19913;-76
2022/09/20 06:03:29;;;;;;;;;;;11.00;99.90;;;;;;5076891;28;20400;-75
2022/09/20 06:05:55;;;;;;;;;;;11.10;99.90;;;;;;5076761;28;20019;-76
2022/09/20 06:08:20;;;;;;;;;;;11.10;99.90;;;;;;5075348;28;20377;-77
2022/09/20 06:10:49;;;;;;;;;;;11.00;99.90;;;;;;5076756;28;20265;-77
2022/09/20 06:13:29;;;;;;;;;;;10.90;99.90;;;;;;5076482;28;19935;-75
2022/09/20 06:16:05;;;;;;;;;;;11.10;99.90;;;;;;5076429;28;19912;-75
2022/09/20 06:18:35;;;;;;;;;;;11.60;99.90;;;;;;5076824;28;19915;-74
2022/09/20 06:21:04;;;;;;;;;;;12.10;99.90;;;;;;5076624;28;19912;-75
2022/09/20 06:23:30;;;;;;;;;;;12.60;99.90;;;;;;5076354;28;19909;-77
2022/09/20 06:25:58;;;;;;;;;;;13.00;99.90;;;;;;5076275;28;20369;-74
2022/09/20 06:28:33;;;;;;;;;;;13.60;99.90;;;;;;5076749;28;19999;-76
2022/09/20 06:30:59;;;;;;;;;;;14.10;99.90;;;;;;5076375;28;19908;-75
2022/09/20 06:33:27;;;;;;;;;;;14.40;99.90;;;;;;5076130;28;19924;-77
2022/09/20 06:41:34;;;;;;;;;;;16.10;99.90;;;;;;5076116;28;19932;-78
2022/09/20 06:44:00;;;;;;;;;;;16.50;99.90;;;;;;5076158;28;19915;-76
2022/09/20 06:46:27;;;;;;;;;;;16.70;99.30;;;;;;5075242;28;20394;-76
2022/09/20 06:48:54;;;;;;;;;;;17.30;97.30;;;;;;5075705;28;19920;-77
2022/09/20 06:51:21;;;;;;;;;;;17.60;94.50;;;;;;5075860;28;19909;-77
2022/09/20 06:53:46;;;;;;;;;;;17.90;93.80;;;;;;5075800;28;19958;-78
2022/09/20 06:56:15;;;;;;;;;;;17.50;93.80;;;;;;5075442;28;19923;-77
2022/09/20 06:58:41;;;;;;;;;;;16.80;94.20;;;;;;5076596;28;19909;-75
2022/09/20 07:01:06;;;;;;;;;;;16.30;95.50;;;;;;5075614;28;19908;-77
2022/09/20 07:03:32;;;;;;;;;;;16.00;96.60;;;;;;5075704;28;19916;-77
2022/09/20 07:05:59;;;;;;;;;;;16.40;95.50;;;;;;5075582;28;20381;-77
2022/09/20 07:08:25;;;;;;;;;;;16.60;94.70;;;;;;5075574;28;20300;-76
2022/09/20 07:10:51;;;;;;;;;;;16.40;94.80;;;;;;5075620;28;19940;-77
2022/09/20 07:13:19;;;;;;;;;;;16.10;95.20;;;;;;5075283;28;20380;-77
2022/09/20 07:15:45;;;;;;;;;;;15.50;97.30;;;;;;5074136;28;20283;-77
2022/09/20 07:18:11;;;;;;;;;;;15.30;99.30;;;;;;5075657;28;19983;-78
2022/09/20 07:20:37;;;;;;;;;;;15.50;99.80;;;;;;5075160;28;20323;-76
2022/09/20 07:23:03;;;;;;;;;;;15.20;99.90;;;;;;5075215;28;19958;-77
2022/09/20 07:25:30;;;;;;;;;;;15.00;99.90;;;;;;5074876;28;19916;-77
2022/09/20 07:27:56;;;;;;;;;;;15.60;99.90;;;;;;5075190;28;19947;-77
2022/09/20 07:30:22;;;;;;;;;;;16.10;99.90;;;;;;5075008;28;19908;-77
2022/09/20 07:32:47;;;;;;;;;;;16.30;99.90;;;;;;5073691;28;19917;-77
2022/09/20 07:35:13;;;;;;;;;;;16.60;99.90;;;;;;5075050;28;19908;-75
2022/09/20 07:37:40;;;;;;;;;;;17.80;99.60;;;;;;5075002;28;19998;-76
2022/09/20 07:40:13;;;;;;;;;;;19.60;95.70;;;;;;5074917;28;19908;-77
2022/09/20 07:42:39;;;;;;;;;;;21.30;92.60;;;;;;5074815;28;19909;-78
2022/09/20 07:45:04;;;;;;;;;;;22.70;90.80;;;;;;5075368;28;19912;-78
2022/09/20 07:47:31;;;;;;;;;;;23.70;87.20;;;;;;5074550;28;19916;-75
2022/09/20 07:49:57;;;;;;;;;;;24.60;85.30;;;;;;5074921;28;20399;-77
2022/09/20 07:52:23;;;;;;;;;;;25.20;79.60;;;;;;5074936;28;19912;-78
2022/09/20 07:54:48;;;;;;;;;;;25.50;78.00;;;;;;5074584;28;19908;-78
2022/09/20 07:57:14;;;;;;;;;;;26.10;75.00;;;;;;5073755;28;19920;-78
2022/09/20 07:59:40;;;;;;;;;;;26.40;72.90;;;;;;5073204;28;20353;-77
2022/09/20 08:02:06;;;;;;;;;;;26.80;71.60;;;;;;5074482;28;19908;-75
2022/09/20 08:04:32;;;;;;;;;;;27.60;68.70;;;;;;5074670;28;19909;-75
2022/09/20 08:06:57;;;;;;;;;;;27.70;64.40;;;;;;5074320;28;19915;-76
2022/09/20 08:09:23;;;;;;;;;;;27.30;64.50;;;;;;5074378;28;19915;-73
2022/09/20 08:11:49;;;;;;;;;;;27.60;64.30;;;;;;5074178;28;19920;-76
2022/09/20 08:14:16;;;;;;;;;;;28.10;65.00;;;;;;5074400;28;19913;-76
2022/09/20 08:16:46;;;;;;;;;;;28.00;62.30;;;;;;5074257;28;19916;-74
2022/09/20 08:19:14;;;;;;;;;;;28.30;62.00;;;;;;5073951;28;19940;-73
2022/09/20 08:21:53;;;;;;;;;;;28.50;60.60;;;;;;5074668;28;20337;-74
2022/09/20 08:24:19;;;;;;;;;;;28.80;59.70;;;;;;5074259;28;20463;-73
2022/09/20 08:26:44;;;;;;;;;;;28.90;58.80;;;;;;5072855;28;20008;-74
2022/09/20 08:29:11;;;;;;;;;;;29.20;59.10;;;;;;5073971;28;19943;-74
2022/09/20 08:31:38;;;;;;;;;;;29.90;57.30;;;;;;5073948;28;19912;-77
2022/09/20 08:34:05;;;;;;;;;;;30.30;56.20;;;;;;5073953;28;19915;-74
2022/09/20 08:36:32;;;;;;;;;;;30.70;55.30;;;;;;5073911;28;19909;-75
2022/09/20 08:38:58;;;;;;;;;;;31.70;54.50;;;;;;5073888;28;19909;-75
2022/09/20 08:41:24;;;;;;;;;;;32.20;52.90;;;;;;5073796;28;20438;-75
2022/09/20 08:43:52;;;;;;;;;;;32.30;51.20;;;;;;5073962;28;19909;-75
2022/09/20 08:46:19;;;;;;;;;;;32.50;51.30;;;;;;5074233;28;19908;-74
2022/09/20 08:48:45;;;;;;;;;;;33.40;49.90;;;;;;5073813;28;19928;-75
2022/09/20 08:51:14;;;;;;;;;;;32.80;49.00;;;;;;5073829;28;19909;-76
2022/09/20 08:53:42;;;;;;;;;;;33.40;48.20;;;;;;5073675;28;19916;-76
2022/09/20 08:56:08;;;;;;;;;;;34.00;48.00;;;;;;5073682;28;19930;-76
2022/09/20 08:58:35;;;;;;;;;;;35.10;46.90;;;;;;5073640;28;20006;-75
2022/09/20 09:01:02;;;;;;;;;;;34.50;45.60;;;;;;5072345;28;19908;-76
2022/09/20 09:03:27;;;;;;;;;;;35.00;45.00;;;;;;5073587;28;19920;-77
2022/09/20 09:05:54;;;;;;;;;;;35.80;43.60;;;;;;5073764;28;20009;-75
2022/09/20 09:08:27;;;;;;;;;;;35.20;42.90;;;;;;5076306;28;19909;-76
2022/09/20 09:10:55;;;;;;;;;;;36.30;41.50;;;;;;5080176;28;19954;-77
2022/09/20 09:13:24;;;;;;;;;;;36.30;41.40;;;;;;5080193;28;19954;-75
2022/09/20 09:16:00;;;;;;;;;;;38.30;40.10;;;;;;5080141;28;20364;-75
2022/09/20 09:18:36;;;;;;;;;;;38.60;38.80;;;;;;5080414;28;20011;-76
2022/09/20 09:21:03;;;;;;;;;;;39.70;37.50;;;;;;5080315;28;19908;-77
2022/09/20 09:23:34;;;;;;;;;;;39.50;37.20;;;;;;5080563;28;19935;-76
2022/09/20 09:26:03;;;;;;;;;;;39.20;37.70;;;;;;5078634;28;19908;-76
2022/09/20 09:28:33;;;;;;;;;;;40.10;36.50;;;;;;5080065;28;20372;-78
2022/09/20 09:31:12;;;;;;;;;;;40.40;36.70;;;;;;5080230;28;20341;-77
2022/09/20 09:33:42;;;;;;;;;;;41.80;37.00;;;;;;5079977;28;19909;-76
2022/09/20 09:36:22;;;;;;;;;;;43.30;32.70;;;;;;5080616;28;19908;-76
2022/09/20 09:38:48;;;;;;;;;;;41.20;32.40;;;;;;5080004;28;19908;-78
2022/09/20 09:41:28;;;;;;;;;;;41.50;33.20;;;;;;5080020;28;19909;-78
2022/09/20 09:44:01;;;;;;;;;;;43.00;33.10;;;;;;5080155;28;19909;-79
2022/09/20 09:46:32;;;;;;;;;;;41.70;31.20;;;;;;5080068;28;19916;-78
2022/09/20 09:49:12;;;;;;;;;;;42.70;32.40;;;;;;5079492;28;20403;-79
2022/09/20 09:51:41;;;;;;;;;;;44.40;32.50;;;;;;5079981;28;19943;-78
2022/09/20 09:54:09;;;;;;;;;;;45.40;31.40;;;;;;5079875;28;19958;-78
2022/09/20 09:56:35;;;;;;;;;;;45.90;30.50;;;;;;5080046;28;20002;-76
2022/09/20 09:59:22;;;;;;;;;;;46.00;30.50;;;;;;5079002;28;20203;-78
2022/09/20 10:02:03;;;;;;;;;;;46.60;30.40;;;;;;5078709;28;19909;-78
2022/09/20 10:04:31;;;;;;;;;;;47.10;30.20;;;;;;5079168;28;19916;-80
2022/09/20 10:06:59;;;;;;;;;;;46.80;29.90;;;;;;5079656;28;19931;-76
2022/09/20 10:09:40;;;;;;;;;;;46.50;29.10;;;;;;5079802;28;19913;-76
2022/09/20 10:12:19;;;;;;;;;;;46.70;29.30;;;;;;5079615;28;19949;-79
2022/09/20 10:15:17;;;;;;;;;;;47.90;29.70;;;;;;5079575;28;19916;-79
2022/09/20 10:17:51;;;;;;;;;;;49.60;29.30;;;;;;5056616;28;20277;-76
2022/09/20 10:20:27;;;;;;;;;;;47.80;27.90;;;;;;5076427;28;20380;-78
2022/09/20 10:22:55;;;;;;;;;;;48.10;28.60;;;;;;5076559;28;19908;-79
2022/09/20 10:25:22;;;;;;;;;;;47.40;27.90;;;;;;5077119;28;19908;-76
2022/09/20 10:27:56;;;;;;;;;;;47.20;28.50;;;;;;5076276;28;19912;-77
2022/09/20 10:30:24;;;;;;;;;;;47.70;28.50;;;;;;5076857;28;19909;-78
2022/09/20 10:32:58;;;;;;;;;;;46.40;28.90;;;;;;5076138;28;19916;-78
2022/09/20 10:35:51;;;;;;;;;;;44.80;28.50;;;;;;5076422;28;19962;-75
2022/09/20 10:38:22;;;;;;;;;;;43.40;28.80;;;;;;5076310;28;19908;-76
2022/09/20 10:44:18;;;;;;;;;;;37.60;30.70;;;;;;5033762;28;19916;-76
2022/09/20 10:46:50;;;;;;;;;;;37.70;31.40;;;;;;5012404;28;20425;-78
2022/09/20 10:49:22;;;;;;;;;;;39.90;30.70;;;;;;5062106;28;20120;-77
2022/09/20 10:52:03;;;;;;;;;;;37.90;30.70;;;;;;5084913;28;20447;-78
2022/09/20 10:54:44;;;;;;;;;;;35.90;31.80;;;;;;5087103;28;20284;-77
2022/09/20 10:57:18;;;;;;;;;;;33.70;33.20;;;;;;5085229;28;19908;-75
2022/09/20 10:59:50;;;;;;;;;;;31.90;34.50;;;;;;5084292;28;19909;-77
2022/09/20 11:02:34;;;;;;;;;;;31.10;35.10;;;;;;5084639;28;19912;-76
2022/09/20 11:05:15;;;;;;;;;;;31.80;35.10;;;;;;5086825;28;20395;-76
2022/09/20 11:07:51;;;;;;;;;;;31.70;35.10;;;;;;5086083;28;19909;-77
2022/09/20 11:10:21;;;;;;;;;;;33.30;35.20;;;;;;5085752;28;19915;-75
2022/09/20 11:12:50;;;;;;;;;;;34.10;33.60;;;;;;5086827;28;19934;-75
2022/09/20 11:15:20;;;;;;;;;;;35.20;33.20;;;;;;5084571;28;19908;-76
2022/09/20 11:17:59;;;;;;;;;;;34.60;33.20;;;;;;5083147;28;19940;-77
2022/09/20 11:20:27;;;;;;;;;;;34.80;34.30;;;;;;5084099;28;19999;-76
2022/09/20 11:23:01;;;;;;;;;;;39.90;32.50;;;;;;5085160;28;20000;-77
2022/09/20 11:25:33;;;;;;;;;;;43.80;31.50;;;;;;5085361;28;19909;-78
2022/09/20 11:28:13;;;;;;;;;;;45.20;30.20;;;;;;5084108;28;19908;-77
2022/09/20 11:31:02;;;;;;;;;;;44.50;29.00;;;;;;5083767;28;19908;-77
2022/09/20 11:33:35;;;;;;;;;;;45.00;29.80;;;;;;5066920;28;19919;-77
2022/09/20 11:36:02;;;;;;;;;;;38.80;30.00;;;;;;5075656;28;20372;-78
2022/09/20 11:38:33;;;;;;;;;;;42.10;31.80;;;;;;5075312;28;19958;-76
2022/09/20 11:41:10;;;;;;;;;;;42.60;31.70;;;;;;5074043;28;20011;-77
2022/09/20 11:43:40;;;;;;;;;;;45.30;30.20;;;;;;5076252;28;19909;-76
2022/09/20 11:46:07;;;;;;;;;;;47.60;30.10;;;;;;5075163;28;19958;-78
2022/09/20 11:48:42;;;;;;;;;;;47.10;29.20;;;;;;5075337;28;19996;-76
2022/09/20 11:51:27;;;;;;;;;;;45.00;29.80;;;;;;5075927;28;19912;-79
2022/09/20 11:54:11;;;;;;;;;;;46.00;29.80;;;;;;5075787;28;19998;-77
2022/09/20 11:56:37;;;;;;;;;;;48.80;29.50;;;;;;5075399;28;19943;-79
2022/09/20 11:59:19;;;;;;;;;;;50.00;28.90;;;;;;5076024;28;19915;-79
2022/09/20 12:01:45;;;;;;;;;;;45.30;29.10;;;;;;5080065;28;19912;-76
2022/09/20 12:04:16;;;;;;;;;;;41.00;31.70;;;;;;5080281;28;19916;-78
2022/09/20 12:06:42;;;;;;;;;;;45.50;30.90;;;;;;5080390;28;19908;-76
2022/09/20 12:09:32;;;;;;;;;;;48.20;30.10;;;;;;5080259;28;20266;-77
2022/09/20 12:11:58;;;;;;;;;;;50.90;29.30;;;;;;5079277;28;19912;-77
2022/09/20 12:14:26;;;;;;;;;;;47.50;29.70;;;;;;5079791;28;19918;-77
2022/09/20 12:16:52;;;;;;;;;;;47.10;29.50;;;;;;5079419;28;20258;-76
2022/09/20 12:19:20;;;;;;;;;;;48.90;29.00;;;;;;5079527;28;19909;-77
2022/09/20 12:21:58;;;;;;;;;;;47.30;28.80;;;;;;5079907;28;19915;-78
2022/09/20 12:24:23;;;;;;;;;;;45.80;29.50;;;;;;5080294;28;19942;-80
2022/09/20 12:26:50;;;;;;;;;;;48.90;29.90;;;;;;5080426;28;20380;-77
2022/09/20 12:29:30;;;;;;;;;;;46.50;29.10;;;;;;5078575;28;20331;-77
2022/09/20 12:31:58;;;;;;;;;;;43.80;30.30;;;;;;5078772;28;19966;-77
2022/09/20 12:34:24;;;;;;;;;;;41.10;30.90;;;;;;5077534;28;20284;-76
2022/09/20 12:36:53;;;;;;;;;;;37.80;32.40;;;;;;5075120;28;20344;-75
2022/09/20 12:39:26;;;;;;;;;;;36.10;34.50;;;;;;5074315;28;19909;-76
2022/09/20 12:42:10;;;;;;;;;;;35.70;35.30;;;;;;5074127;28;19909;-77
2022/09/20 12:44:38;;;;;;;;;;;36.00;35.50;;;;;;5073434;28;19909;-78
2022/09/20 12:47:14;;;;;;;;;;;35.40;35.90;;;;;;5074104;28;19944;-76
2022/09/20 12:55:38;;;;;;;;;;;34.40;36.80;;;;;;5073554;28;20042;-75
2022/09/20 12:58:09;;;;;;;;;;;33.90;37.80;;;;;;5072467;28;19908;-75
2022/09/20 13:00:35;;;;;;;;;;;32.30;38.50;;;;;;5074375;28;19955;-74
2022/09/20 13:03:09;;;;;;;;;;;31.50;39.80;;;;;;5073801;28;19966;-75
2022/09/20 13:05:39;;;;;;;;;;;31.50;40.80;;;;;;5074033;28;19912;-76
2022/09/20 13:08:13;;;;;;;;;;;32.10;39.40;;;;;;5072181;28;19916;-77
2022/09/20 13:10:44;;;;;;;;;;;31.90;40.10;;;;;;5073608;28;19909;-76
2022/09/20 13:13:45;;;;;;;;;;;35.70;38.70;;;;;;5074030;28;19913;-74
2022/09/20 13:16:36;;;;;;;;;;;40.70;36.20;;;;;;5014393;28;19910;-78
2022/09/20 13:19:05;;;;;;;;;;;43.50;32.30;;;;;;5058064;28;20372;-78
2022/09/20 13:21:32;;;;;;;;;;;42.80;32.10;;;;;;5075757;28;19909;-77
2022/09/20 13:23:58;;;;;;;;;;;38.90;33.50;;;;;;5074445;28;19962;-74
2022/09/20 13:26:38;;;;;;;;;;;36.20;35.30;;;;;;5072980;28;19909;-76
2022/09/20 13:29:06;;;;;;;;;;;33.40;37.70;;;;;;5071773;28;19922;-76
2022/09/20 13:31:33;;;;;;;;;;;31.10;40.60;;;;;;5072905;28;19908;-75
2022/09/20 13:34:12;;;;;;;;;;;29.80;42.10;;;;;;5073425;28;19908;-75
2022/09/20 13:36:37;;;;;;;;;;;28.90;44.30;;;;;;5073526;28;19912;-77
2022/09/20 13:39:05;;;;;;;;;;;28.50;44.90;;;;;;5073572;28;19915;-77
2022/09/20 13:41:32;;;;;;;;;;;28.10;45.30;;;;;;5073349;28;20270;-75
2022/09/20 13:43:59;;;;;;;;;;;28.00;46.50;;;;;;5073098;28;20008;-75
2022/09/20 13:46:30;;;;;;;;;;;27.70;46.90;;;;;;5073583;28;20011;-76
2022/09/20 13:49:07;;;;;;;;;;;26.90;48.30;;;;;;5072990;28;20439;-75
2022/09/20 13:51:33;;;;;;;;;;;26.80;49.20;;;;;;5073164;28;19908;-76
2022/09/20 13:54:19;;;;;;;;;;;26.60;49.80;;;;;;5073654;28;19909;-75
2022/09/20 13:56:44;;;;;;;;;;;26.40;50.20;;;;;;5077287;28;19909;-77
2022/09/20 13:59:16;;;;;;;;;;;26.40;50.20;;;;;;5077060;28;19934;-75
2022/09/20 14:01:44;;;;;;;;;;;26.50;50.00;;;;;;5076893;28;19931;-76
2022/09/20 14:04:20;;;;;;;;;;;26.10;50.90;;;;;;5076870;28;20372;-75
2022/09/20 14:06:46;;;;;;;;;;;26.10;51.20;;;;;;5077066;28;19913;-77
2022/09/20 14:09:38;;;;;;;;;;;26.00;51.10;;;;;;5076952;28;20030;-75
2022/09/20 14:12:04;;;;;;;;;;;25.70;52.10;;;;;;5073685;28;19954;-75
2022/09/20 14:14:30;;;;;;;;;;;25.40;53.00;;;;;;5076595;28;20422;-74
2022/09/20 14:16:56;;;;;;;;;;;25.20;54.20;;;;;;5076512;28;19909;-74
2022/09/20 14:19:25;;;;;;;;;;;24.90;55.00;;;;;;5076434;28;19909;-76
2022/09/20 14:21:51;;;;;;;;;;;24.90;56.00;;;;;;5076356;28;19912;-75
2022/09/20 14:24:25;;;;;;;;;;;24.90;56.40;;;;;;5076806;28;20372;-74
2022/09/20 14:27:02;;;;;;;;;;;24.80;57.40;;;;;;5076662;28;19912;-75
2022/09/20 14:29:30;;;;;;;;;;;25.20;57.30;;;;;;5076342;28;19944;-77
2022/09/20 14:31:57;;;;;;;;;;;25.30;57.10;;;;;;5075036;28;19909;-76
2022/09/20 14:34:22;;;;;;;;;;;25.20;57.20;;;;;;5076593;28;19962;-76
2022/09/20 14:36:48;;;;;;;;;;;25.20;57.50;;;;;;5076329;28;19912;-76
2022/09/20 14:39:15;;;;;;;;;;;25.40;57.60;;;;;;5076147;28;19952;-75
2022/09/20 14:41:41;;;;;;;;;;;25.70;57.00;;;;;;5076099;28;20323;-74
2022/09/20 14:44:27;;;;;;;;;;;26.10;56.20;;;;;;5076056;28;19915;-75
2022/09/20 14:46:53;;;;;;;;;;;26.60;55.00;;;;;;5075633;28;19908;-74
2022/09/20 14:49:25;;;;;;;;;;;27.40;53.10;;;;;;5074244;28;20316;-76
2022/09/20 14:51:51;;;;;;;;;;;27.80;52.30;;;;;;5075969;28;19908;-74
2022/09/20 14:54:23;;;;;;;;;;;28.40;50.50;;;;;;5075855;28;19916;-76
2022/09/20 14:56:51;;;;;;;;;;;29.50;48.40;;;;;;5076208;28;19909;-76
2022/09/20 14:59:17;;;;;;;;;;;29.50;47.90;;;;;;5075817;28;19909;-75
2022/09/20 15:01:45;;;;;;;;;;;28.90;47.70;;;;;;5075663;28;19916;-74